sensor_id;sensor_type;location;lat;lon;timestamp;temperature;humidity
61253;DHT22;47127;47.516;8.596;2023-02-01T00:01:21;4.60;99.90
61253;DHT22;47127;47.516;8.596;2023-02-01T00:03:47;4.60;99.90
61253;DHT22;47127;47.516;8.596;2023-02-01T00:06:12;4.50;99.90
61253;DHT22;47127;47.516;8.596;2023-02-01T00:08:38;4.50;99.90
61253;DHT22;47127;47.516;8.596;2023-02-01T00:11:06;4.60;99.90
61253;DHT22;47127;47.516;8.596;2023-02-01T00:13:34;4.50;99.90
61253;DHT22;47127;47.516;8.596;2023-02-01T00:16:28;4.50;99.90
61253;DHT22;47127;47.516;8.596;2023-02-01T00:19:04;4.50;99.90
61253;DHT22;47127;47.516;8.596;2023-02-01T00:21:30;4.40;99.90
61253;DHT22;47127;47.516;8.596;2023-02-01T00:23:56;4.40;99.90
61253;DHT22;47127;47.516;8.596;2023-02-01T00:26:37;4.40;99.90
61253;DHT22;47127;47.516;8.596;2023-02-01T00:29:05;4.40;99.90
61253;DHT22;47127;47.516;8.596;2023-02-01T00:31:31;4.40;99.90
61253;DHT22;47127;47.516;8.596;2023-02-01T00:33:57;4.30;99.90
61253;DHT22;47127;47.516;8.596;2023-02-01T00:36:22;4.30;99.90
61253;DHT22;47127;47.516;8.596;2023-02-01T00:38:48;4.20;99.90
61253;DHT22;47127;47.516;8.596;2023-02-01T00:41:16;4.10;99.90
61253;DHT22;47127;47.516;8.596;2023-02-01T00:43:43;4.10;99.90
61253;DHT22;47127;47.516;8.596;2023-02-01T00:46:09;4.20;99.90
61253;DHT22;47127;47.516;8.596;2023-02-01T00:48:35;4.30;99.90
61253;DHT22;47127;47.516;8.596;2023-02-01T00:51:06;4.30;99.90
61253;DHT22;47127;47.516;8.596;2023-02-01T00:53:32;4.20;99.90
61253;DHT22;47127;47.516;8.596;2023-02-01T00:55:58;4.20;99.90
61253;DHT22;47127;47.516;8.596;2023-02-01T00:58:24;4.10;99.90
61253;DHT22;47127;47.516;8.596;2023-02-01T01:01:04;4.10;99.90
61253;DHT22;47127;47.516;8.596;2023-02-01T01:03:30;4.10;99.90
61253;DHT22;47127;47.516;8.596;2023-02-01T01:06:00;4.00;99.90
61253;DHT22;47127;47.516;8.596;2023-02-01T01:08:26;4.10;99.90
61253;DHT22;47127;47.516;8.596;2023-02-01T01:10:51;4.00;99.90
61253;DHT22;47127;47.516;8.596;2023-02-01T01:13:17;4.00;99.90
61253;DHT22;47127;47.516;8.596;2023-02-01T01:15:43;4.00;99.90
61253;DHT22;47127;47.516;8.596;2023-02-01T01:18:08;4.00;99.90
61253;DHT22;47127;47.516;8.596;2023-02-01T01:20:35;4.00;99.90
61253;DHT22;47127;47.516;8.596;2023-02-01T01:23:02;4.00;99.90
61253;DHT22;47127;47.516;8.596;2023-02-01T01:25:28;4.00;99.90
61253;DHT22;47127;47.516;8.596;2023-02-01T01:27:53;4.00;99.90
61253;DHT22;47127;47.516;8.596;2023-02-01T01:30:19;4.00;99.90
61253;DHT22;47127;47.516;8.596;2023-02-01T01:32:44;4.00;99.90
61253;DHT22;47127;47.516;8.596;2023-02-01T01:35:10;4.00;99.90
61253;DHT22;47127;47.516;8.596;2023-02-01T01:37:36;4.00;99.90
61253;DHT22;47127;47.516;8.596;2023-02-01T01:40:03;4.10;99.90
61253;DHT22;47127;47.516;8.596;2023-02-01T01:42:29;3.90;99.90
61253;DHT22;47127;47.516;8.596;2023-02-01T01:45:00;4.00;99.90
61253;DHT22;47127;47.516;8.596;2023-02-01T01:47:39;4.00;99.90
61253;DHT22;47127;47.516;8.596;2023-02-01T01:50:07;4.00;99.90
61253;DHT22;47127;47.516;8.596;2023-02-01T01:52:35;3.90;99.90
61253;DHT22;47127;47.516;8.596;2023-02-01T01:55:02;3.80;99.90
61253;DHT22;47127;47.516;8.596;2023-02-01T01:57:39;3.80;99.90
61253;DHT22;47127;47.516;8.596;2023-02-01T02:00:11;3.80;99.90
61253;DHT22;47127;47.516;8.596;2023-02-01T02:02:39;3.90;99.90
61253;DHT22;47127;47.516;8.596;2023-02-01T02:05:05;4.00;99.90
61253;DHT22;47127;47.516;8.596;2023-02-01T02:07:37;4.00;99.90
61253;DHT22;47127;47.516;8.596;2023-02-01T02:10:06;4.00;99.90
61253;DHT22;47127;47.516;8.596;2023-02-01T02:12:32;4.00;99.90
61253;DHT22;47127;47.516;8.596;2023-02-01T02:14:58;3.90;99.90
61253;DHT22;47127;47.516;8.596;2023-02-01T02:17:39;3.90;99.90
61253;DHT22;47127;47.516;8.596;2023-02-01T02:22:55;4.00;99.90
61253;DHT22;47127;47.516;8.596;2023-02-01T02:29:00;4.00;99.90
61253;DHT22;47127;47.516;8.596;2023-02-01T02:31:38;4.10;99.90
61253;DHT22;47127;47.516;8.596;2023-02-01T02:34:39;4.10;99.90
61253;DHT22;47127;47.516;8.596;2023-02-01T02:37:15;4.20;99.90
61253;DHT22;47127;47.516;8.596;2023-02-01T02:39:53;4.20;99.90
61253;DHT22;47127;47.516;8.596;2023-02-01T02:42:53;4.30;99.90
61253;DHT22;47127;47.516;8.596;2023-02-01T02:45:49;4.20;99.90
61253;DHT22;47127;47.516;8.596;2023-02-01T02:48:48;4.20;99.90
61253;DHT22;47127;47.516;8.596;2023-02-01T02:51:20;4.20;99.90
61253;DHT22;47127;47.516;8.596;2023-02-01T02:54:19;4.10;99.90
61253;DHT22;47127;47.516;8.596;2023-02-01T02:57:08;4.00;99.90
61253;DHT22;47127;47.516;8.596;2023-02-01T02:59:55;4.00;99.90
61253;DHT22;47127;47.516;8.596;2023-02-01T03:02:41;4.00;99.90
61253;DHT22;47127;47.516;8.596;2023-02-01T03:05:32;4.10;99.90
61253;DHT22;47127;47.516;8.596;2023-02-01T03:08:22;4.10;99.90
61253;DHT22;47127;47.516;8.596;2023-02-01T03:16:11;3.90;99.90
61253;DHT22;47127;47.516;8.596;2023-02-01T03:19:03;3.80;99.90
61253;DHT22;47127;47.516;8.596;2023-02-01T03:24:49;3.60;99.90
61253;DHT22;47127;47.516;8.596;2023-02-01T03:27:37;3.50;99.90
61253;DHT22;47127;47.516;8.596;2023-02-01T03:30:11;3.50;99.90
61253;DHT22;47127;47.516;8.596;2023-02-01T03:32:43;3.50;99.90
61253;DHT22;47127;47.516;8.596;2023-02-01T03:35:41;3.60;99.90
61253;DHT22;47127;47.516;8.596;2023-02-01T03:40:39;3.60;99.90
61253;DHT22;47127;47.516;8.596;2023-02-01T03:43:11;3.50;99.90
61253;DHT22;47127;47.516;8.596;2023-02-01T03:45:43;3.50;99.90
61253;DHT22;47127;47.516;8.596;2023-02-01T03:48:09;3.40;99.90
61253;DHT22;47127;47.516;8.596;2023-02-01T03:50:38;3.40;99.90
61253;DHT22;47127;47.516;8.596;2023-02-01T03:53:11;3.40;99.90
61253;DHT22;47127;47.516;8.596;2023-02-01T03:55:40;3.50;99.90
61253;DHT22;47127;47.516;8.596;2023-02-01T03:58:20;3.40;99.90
61253;DHT22;47127;47.516;8.596;2023-02-01T04:03:16;3.30;99.90
61253;DHT22;47127;47.516;8.596;2023-02-01T04:05:41;3.50;99.90
61253;DHT22;47127;47.516;8.596;2023-02-01T04:08:07;3.50;99.90
61253;DHT22;47127;47.516;8.596;2023-02-01T04:10:32;3.50;99.90
61253;DHT22;47127;47.516;8.596;2023-02-01T04:12:58;3.50;99.90
61253;DHT22;47127;47.516;8.596;2023-02-01T04:15:24;3.40;99.90
61253;DHT22;47127;47.516;8.596;2023-02-01T04:17:49;3.40;99.90
61253;DHT22;47127;47.516;8.596;2023-02-01T04:20:15;3.40;99.90
61253;DHT22;47127;47.516;8.596;2023-02-01T04:22:40;3.50;99.90
61253;DHT22;47127;47.516;8.596;2023-02-01T04:25:07;3.60;99.90
61253;DHT22;47127;47.516;8.596;2023-02-01T04:27:33;3.50;99.90
61253;DHT22;47127;47.516;8.596;2023-02-01T04:29:59;3.50;99.90
61253;DHT22;47127;47.516;8.596;2023-02-01T04:32:24;3.50;99.90
61253;DHT22;47127;47.516;8.596;2023-02-01T04:34:50;3.50;99.90
61253;DHT22;47127;47.516;8.596;2023-02-01T04:37:15;3.60;99.90
61253;DHT22;47127;47.516;8.596;2023-02-01T04:39:41;3.70;99.90
61253;DHT22;47127;47.516;8.596;2023-02-01T04:42:06;3.80;99.90
61253;DHT22;47127;47.516;8.596;2023-02-01T04:44:32;3.70;99.90
61253;DHT22;47127;47.516;8.596;2023-02-01T04:46:57;3.80;99.90
61253;DHT22;47127;47.516;8.596;2023-02-01T04:49:23;3.70;99.90
61253;DHT22;47127;47.516;8.596;2023-02-01T04:51:50;3.80;99.90
61253;DHT22;47127;47.516;8.596;2023-02-01T04:54:16;3.90;99.90
61253;DHT22;47127;47.516;8.596;2023-02-01T04:56:42;3.90;99.90
61253;DHT22;47127;47.516;8.596;2023-02-01T04:59:07;3.70;99.90
61253;DHT22;47127;47.516;8.596;2023-02-01T05:01:33;3.70;99.90
61253;DHT22;47127;47.516;8.596;2023-02-01T05:03:58;3.70;99.90
61253;DHT22;47127;47.516;8.596;2023-02-01T05:06:24;3.60;99.90
61253;DHT22;47127;47.516;8.596;2023-02-01T05:08:50;3.60;99.90
61253;DHT22;47127;47.516;8.596;2023-02-01T05:11:15;3.60;99.90
61253;DHT22;47127;47.516;8.596;2023-02-01T05:14:01;3.60;99.90
61253;DHT22;47127;47.516;8.596;2023-02-01T05:16:27;3.60;99.90
61253;DHT22;47127;47.516;8.596;2023-02-01T05:18:53;3.70;99.90
61253;DHT22;47127;47.516;8.596;2023-02-01T05:21:18;3.80;99.90
61253;DHT22;47127;47.516;8.596;2023-02-01T05:23:44;3.80;99.90
61253;DHT22;47127;47.516;8.596;2023-02-01T05:26:28;3.80;99.90
61253;DHT22;47127;47.516;8.596;2023-02-01T05:28:54;3.90;99.90
61253;DHT22;47127;47.516;8.596;2023-02-01T05:31:19;3.80;99.90
61253;DHT22;47127;47.516;8.596;2023-02-01T05:33:45;3.80;99.90
61253;DHT22;47127;47.516;8.596;2023-02-01T05:36:11;3.80;99.90
61253;DHT22;47127;47.516;8.596;2023-02-01T05:38:36;3.80;99.90
61253;DHT22;47127;47.516;8.596;2023-02-01T05:41:02;3.70;99.90
61253;DHT22;47127;47.516;8.596;2023-02-01T05:43:27;3.80;99.90
61253;DHT22;47127;47.516;8.596;2023-02-01T05:45:53;3.80;99.90
61253;DHT22;47127;47.516;8.596;2023-02-01T05:48:19;3.80;99.90
61253;DHT22;47127;47.516;8.596;2023-02-01T05:50:44;3.70;99.90
61253;DHT22;47127;47.516;8.596;2023-02-01T05:53:10;3.70;99.90
61253;DHT22;47127;47.516;8.596;2023-02-01T05:55:36;3.80;99.90
61253;DHT22;47127;47.516;8.596;2023-02-01T05:58:02;3.80;99.90
61253;DHT22;47127;47.516;8.596;2023-02-01T06:00:28;3.80;99.90
61253;DHT22;47127;47.516;8.596;2023-02-01T06:02:53;3.90;99.90
61253;DHT22;47127;47.516;8.596;2023-02-01T06:05:19;3.80;99.90
61253;DHT22;47127;47.516;8.596;2023-02-01T06:07:45;3.90;99.90
61253;DHT22;47127;47.516;8.596;2023-02-01T06:10:10;3.80;99.90
61253;DHT22;47127;47.516;8.596;2023-02-01T06:12:36;3.80;99.90
61253;DHT22;47127;47.516;8.596;2023-02-01T06:15:02;3.90;99.90
61253;DHT22;47127;47.516;8.596;2023-02-01T06:17:27;3.90;99.90
61253;DHT22;47127;47.516;8.596;2023-02-01T06:19:53;3.90;99.90
61253;DHT22;47127;47.516;8.596;2023-02-01T06:22:18;3.90;99.90
61253;DHT22;47127;47.516;8.596;2023-02-01T06:24:44;4.00;99.90
61253;DHT22;47127;47.516;8.596;2023-02-01T06:27:09;4.00;99.90
61253;DHT22;47127;47.516;8.596;2023-02-01T06:29:35;4.00;99.90
61253;DHT22;47127;47.516;8.596;2023-02-01T06:32:01;4.00;99.90
61253;DHT22;47127;47.516;8.596;2023-02-01T06:34:26;4.10;99.90
61253;DHT22;47127;47.516;8.596;2023-02-01T06:36:52;4.50;99.90
61253;DHT22;47127;47.516;8.596;2023-02-01T06:39:18;4.10;99.90
61253;DHT22;47127;47.516;8.596;2023-02-01T06:41:48;4.10;99.90
61253;DHT22;47127;47.516;8.596;2023-02-01T06:44:14;4.20;99.90
61253;DHT22;47127;47.516;8.596;2023-02-01T06:46:40;4.20;99.90
61253;DHT22;47127;47.516;8.596;2023-02-01T06:49:05;4.30;99.90
61253;DHT22;47127;47.516;8.596;2023-02-01T06:51:31;4.10;99.90
61253;DHT22;47127;47.516;8.596;2023-02-01T06:53:57;4.10;99.90
61253;DHT22;47127;47.516;8.596;2023-02-01T06:56:23;4.10;99.90
61253;DHT22;47127;47.516;8.596;2023-02-01T06:58:49;4.20;99.90
61253;DHT22;47127;47.516;8.596;2023-02-01T07:01:15;4.30;99.90
61253;DHT22;47127;47.516;8.596;2023-02-01T07:03:41;4.30;99.90
61253;DHT22;47127;47.516;8.596;2023-02-01T07:06:08;4.20;99.90
61253;DHT22;47127;47.516;8.596;2023-02-01T07:08:36;4.10;99.90
61253;DHT22;47127;47.516;8.596;2023-02-01T07:11:10;4.00;99.90
61253;DHT22;47127;47.516;8.596;2023-02-01T07:13:37;4.00;99.90
61253;DHT22;47127;47.516;8.596;2023-02-01T07:16:05;4.00;99.90
61253;DHT22;47127;47.516;8.596;2023-02-01T07:18:31;3.90;99.90
61253;DHT22;47127;47.516;8.596;2023-02-01T07:20:57;3.80;99.90
61253;DHT22;47127;47.516;8.596;2023-02-01T07:23:23;3.80;99.90
61253;DHT22;47127;47.516;8.596;2023-02-01T07:25:52;3.80;99.90
61253;DHT22;47127;47.516;8.596;2023-02-01T07:28:18;3.80;99.90
61253;DHT22;47127;47.516;8.596;2023-02-01T07:30:43;3.80;99.90
61253;DHT22;47127;47.516;8.596;2023-02-01T07:33:19;3.90;99.90
61253;DHT22;47127;47.516;8.596;2023-02-01T07:35:46;3.90;99.90
61253;DHT22;47127;47.516;8.596;2023-02-01T07:38:11;3.80;99.90
61253;DHT22;47127;47.516;8.596;2023-02-01T07:40:36;3.70;99.90
61253;DHT22;47127;47.516;8.596;2023-02-01T07:43:02;3.70;99.90
61253;DHT22;47127;47.516;8.596;2023-02-01T07:45:28;3.70;99.90
61253;DHT22;47127;47.516;8.596;2023-02-01T07:47:53;3.70;99.90
61253;DHT22;47127;47.516;8.596;2023-02-01T07:50:19;3.60;99.90
61253;DHT22;47127;47.516;8.596;2023-02-01T07:52:45;3.50;99.90
61253;DHT22;47127;47.516;8.596;2023-02-01T07:55:10;3.50;99.90
61253;DHT22;47127;47.516;8.596;2023-02-01T07:57:36;3.50;99.90
61253;DHT22;47127;47.516;8.596;2023-02-01T08:00:02;3.50;99.90
61253;DHT22;47127;47.516;8.596;2023-02-01T08:02:47;3.60;99.90
61253;DHT22;47127;47.516;8.596;2023-02-01T08:05:12;3.60;99.90
61253;DHT22;47127;47.516;8.596;2023-02-01T08:07:38;3.60;99.90
61253;DHT22;47127;47.516;8.596;2023-02-01T08:10:04;3.70;99.90
61253;DHT22;47127;47.516;8.596;2023-02-01T08:12:32;3.60;99.90
61253;DHT22;47127;47.516;8.596;2023-02-01T08:14:57;3.60;99.90
61253;DHT22;47127;47.516;8.596;2023-02-01T08:17:23;3.60;99.90
61253;DHT22;47127;47.516;8.596;2023-02-01T08:19:48;3.60;99.90
61253;DHT22;47127;47.516;8.596;2023-02-01T08:22:14;3.60;99.90
61253;DHT22;47127;47.516;8.596;2023-02-01T08:24:39;3.60;99.90
61253;DHT22;47127;47.516;8.596;2023-02-01T08:27:06;3.60;99.90
61253;DHT22;47127;47.516;8.596;2023-02-01T08:29:31;3.60;99.90
61253;DHT22;47127;47.516;8.596;2023-02-01T08:31:57;3.60;99.90
61253;DHT22;47127;47.516;8.596;2023-02-01T08:34:23;3.60;99.90
61253;DHT22;47127;47.516;8.596;2023-02-01T08:36:49;3.80;99.90
61253;DHT22;47127;47.516;8.596;2023-02-01T08:39:17;3.80;99.90
61253;DHT22;47127;47.516;8.596;2023-02-01T08:41:42;3.90;99.90
61253;DHT22;47127;47.516;8.596;2023-02-01T08:44:28;4.10;99.90
61253;DHT22;47127;47.516;8.596;2023-02-01T08:46:53;4.10;99.90
61253;DHT22;47127;47.516;8.596;2023-02-01T08:49:19;4.10;99.90
61253;DHT22;47127;47.516;8.596;2023-02-01T08:51:44;4.10;99.90
61253;DHT22;47127;47.516;8.596;2023-02-01T08:54:10;4.10;99.90
61253;DHT22;47127;47.516;8.596;2023-02-01T08:56:35;4.20;99.90
61253;DHT22;47127;47.516;8.596;2023-02-01T08:59:01;4.20;99.90
61253;DHT22;47127;47.516;8.596;2023-02-01T09:01:26;4.20;99.90
61253;DHT22;47127;47.516;8.596;2023-02-01T09:03:52;4.20;99.90
61253;DHT22;47127;47.516;8.596;2023-02-01T09:06:17;4.10;99.90
61253;DHT22;47127;47.516;8.596;2023-02-01T09:08:43;4.20;99.90
61253;DHT22;47127;47.516;8.596;2023-02-01T09:11:14;4.20;99.90
61253;DHT22;47127;47.516;8.596;2023-02-01T09:13:40;4.30;99.90
61253;DHT22;47127;47.516;8.596;2023-02-01T09:16:05;4.30;99.90
61253;DHT22;47127;47.516;8.596;2023-02-01T09:18:31;4.40;99.90
61253;DHT22;47127;47.516;8.596;2023-02-01T09:20:56;4.40;99.90
61253;DHT22;47127;47.516;8.596;2023-02-01T09:23:22;4.40;99.90
61253;DHT22;47127;47.516;8.596;2023-02-01T09:25:48;4.40;99.90
61253;DHT22;47127;47.516;8.596;2023-02-01T09:28:17;4.40;99.90
61253;DHT22;47127;47.516;8.596;2023-02-01T09:30:42;4.50;99.90
61253;DHT22;47127;47.516;8.596;2023-02-01T09:33:08;4.50;99.90
61253;DHT22;47127;47.516;8.596;2023-02-01T09:35:33;4.50;99.90
61253;DHT22;47127;47.516;8.596;2023-02-01T09:37:59;4.60;99.90
61253;DHT22;47127;47.516;8.596;2023-02-01T09:40:25;4.60;99.90
61253;DHT22;47127;47.516;8.596;2023-02-01T09:43:21;4.70;99.90
61253;DHT22;47127;47.516;8.596;2023-02-01T09:48:39;4.70;99.90
61253;DHT22;47127;47.516;8.596;2023-02-01T09:51:15;4.80;99.90
61253;DHT22;47127;47.516;8.596;2023-02-01T09:53:44;4.70;99.90
61253;DHT22;47127;47.516;8.596;2023-02-01T09:56:16;4.70;99.90
61253;DHT22;47127;47.516;8.596;2023-02-01T09:59:01;4.60;99.90
61253;DHT22;47127;47.516;8.596;2023-02-01T10:01:31;4.50;99.90
61253;DHT22;47127;47.516;8.596;2023-02-01T10:04:03;4.60;99.90
61253;DHT22;47127;47.516;8.596;2023-02-01T10:09:18;4.80;99.90
61253;DHT22;47127;47.516;8.596;2023-02-01T10:12:32;4.80;99.90
61253;DHT22;47127;47.516;8.596;2023-02-01T10:18:09;4.80;99.90
61253;DHT22;47127;47.516;8.596;2023-02-01T10:21:01;4.70;99.90
61253;DHT22;47127;47.516;8.596;2023-02-01T10:23:53;4.80;99.90
61253;DHT22;47127;47.516;8.596;2023-02-01T10:26:26;4.80;99.90
61253;DHT22;47127;47.516;8.596;2023-02-01T10:29:00;4.90;99.90
61253;DHT22;47127;47.516;8.596;2023-02-01T10:31:29;4.90;99.90
61253;DHT22;47127;47.516;8.596;2023-02-01T10:34:17;4.90;99.90
61253;DHT22;47127;47.516;8.596;2023-02-01T10:37:07;4.90;99.90
61253;DHT22;47127;47.516;8.596;2023-02-01T10:39:35;5.00;99.90
61253;DHT22;47127;47.516;8.596;2023-02-01T10:42:02;4.80;99.90
61253;DHT22;47127;47.516;8.596;2023-02-01T10:44:30;4.90;99.90
61253;DHT22;47127;47.516;8.596;2023-02-01T10:46:57;5.10;99.90
61253;DHT22;47127;47.516;8.596;2023-02-01T10:49:29;5.10;99.90
61253;DHT22;47127;47.516;8.596;2023-02-01T10:52:05;5.20;99.90
61253;DHT22;47127;47.516;8.596;2023-02-01T10:54:35;5.40;99.90
61253;DHT22;47127;47.516;8.596;2023-02-01T10:57:01;5.30;99.90
61253;DHT22;47127;47.516;8.596;2023-02-01T10:59:28;5.40;99.90
61253;DHT22;47127;47.516;8.596;2023-02-01T11:02:00;5.50;99.90
61253;DHT22;47127;47.516;8.596;2023-02-01T11:04:30;5.50;99.90
61253;DHT22;47127;47.516;8.596;2023-02-01T11:07:13;5.40;99.90
61253;DHT22;47127;47.516;8.596;2023-02-01T11:09:41;5.40;99.90
61253;DHT22;47127;47.516;8.596;2023-02-01T11:12:23;5.60;99.90
61253;DHT22;47127;47.516;8.596;2023-02-01T11:14:50;5.90;99.90
61253;DHT22;47127;47.516;8.596;2023-02-01T11:19:45;6.30;99.90
61253;DHT22;47127;47.516;8.596;2023-02-01T11:22:12;6.30;99.90
61253;DHT22;47127;47.516;8.596;2023-02-01T11:24:39;6.10;99.90
61253;DHT22;47127;47.516;8.596;2023-02-01T11:27:15;5.90;99.90
61253;DHT22;47127;47.516;8.596;2023-02-01T11:29:43;6.00;99.90
61253;DHT22;47127;47.516;8.596;2023-02-01T11:32:12;6.00;99.90
61253;DHT22;47127;47.516;8.596;2023-02-01T11:34:43;6.10;99.90
61253;DHT22;47127;47.516;8.596;2023-02-01T11:37:24;6.30;99.90
61253;DHT22;47127;47.516;8.596;2023-02-01T11:39:58;6.40;99.90
61253;DHT22;47127;47.516;8.596;2023-02-01T11:42:25;6.50;99.90
61253;DHT22;47127;47.516;8.596;2023-02-01T11:45:15;6.50;99.90
61253;DHT22;47127;47.516;8.596;2023-02-01T11:47:42;6.50;99.90
61253;DHT22;47127;47.516;8.596;2023-02-01T11:50:37;6.30;99.90
61253;DHT22;47127;47.516;8.596;2023-02-01T11:56:33;6.50;99.90
61253;DHT22;47127;47.516;8.596;2023-02-01T12:01:38;6.70;99.90
61253;DHT22;47127;47.516;8.596;2023-02-01T12:07:20;6.60;99.90
61253;DHT22;47127;47.516;8.596;2023-02-01T12:15:54;6.50;99.90
61253;DHT22;47127;47.516;8.596;2023-02-01T12:21:53;6.60;99.90
61253;DHT22;47127;47.516;8.596;2023-02-01T12:27:15;6.40;99.90
61253;DHT22;47127;47.516;8.596;2023-02-01T12:32:20;6.40;99.90
61253;DHT22;47127;47.516;8.596;2023-02-01T12:35:12;6.40;99.90
61253;DHT22;47127;47.516;8.596;2023-02-01T12:37:49;6.30;99.90
61253;DHT22;47127;47.516;8.596;2023-02-01T12:40:53;6.30;99.90
61253;DHT22;47127;47.516;8.596;2023-02-01T12:46:18;6.50;99.90
61253;DHT22;47127;47.516;8.596;2023-02-01T12:49:05;6.60;99.90
61253;DHT22;47127;47.516;8.596;2023-02-01T12:51:40;6.80;99.90
61253;DHT22;47127;47.516;8.596;2023-02-01T12:57:01;7.00;99.90
61253;DHT22;47127;47.516;8.596;2023-02-01T12:59:33;7.00;99.90
61253;DHT22;47127;47.516;8.596;2023-02-01T13:05:04;6.80;99.90
61253;DHT22;47127;47.516;8.596;2023-02-01T13:07:37;6.70;99.90
61253;DHT22;47127;47.516;8.596;2023-02-01T13:10:22;6.50;99.90
61253;DHT22;47127;47.516;8.596;2023-02-01T13:12:53;6.50;99.90
61253;DHT22;47127;47.516;8.596;2023-02-01T13:15:25;6.60;99.90
61253;DHT22;47127;47.516;8.596;2023-02-01T13:17:54;6.50;99.90
61253;DHT22;47127;47.516;8.596;2023-02-01T13:20:33;6.60;99.90
61253;DHT22;47127;47.516;8.596;2023-02-01T13:23:16;6.40;99.90
61253;DHT22;47127;47.516;8.596;2023-02-01T13:25:48;6.30;99.90
61253;DHT22;47127;47.516;8.596;2023-02-01T13:28:47;6.20;99.90
61253;DHT22;47127;47.516;8.596;2023-02-01T13:31:33;6.30;99.90
61253;DHT22;47127;47.516;8.596;2023-02-01T13:39:55;6.30;99.90
61253;DHT22;47127;47.516;8.596;2023-02-01T13:45:17;6.30;99.90
61253;DHT22;47127;47.516;8.596;2023-02-01T13:47:46;6.30;99.90
61253;DHT22;47127;47.516;8.596;2023-02-01T13:50:20;6.40;99.90
61253;DHT22;47127;47.516;8.596;2023-02-01T13:52:58;6.40;99.90
61253;DHT22;47127;47.516;8.596;2023-02-01T13:55:28;6.40;99.90
61253;DHT22;47127;47.516;8.596;2023-02-01T13:58:20;6.30;99.90
61253;DHT22;47127;47.516;8.596;2023-02-01T14:00:48;6.30;99.90
61253;DHT22;47127;47.516;8.596;2023-02-01T14:03:18;6.30;99.90
61253;DHT22;47127;47.516;8.596;2023-02-01T14:08:14;6.40;99.90
61253;DHT22;47127;47.516;8.596;2023-02-01T14:10:59;6.50;99.90
61253;DHT22;47127;47.516;8.596;2023-02-01T14:13:43;6.50;99.90
61253;DHT22;47127;47.516;8.596;2023-02-01T14:16:13;6.60;99.90
61253;DHT22;47127;47.516;8.596;2023-02-01T14:21:20;6.50;99.90
61253;DHT22;47127;47.516;8.596;2023-02-01T14:26:26;6.60;99.90
61253;DHT22;47127;47.516;8.596;2023-02-01T14:31:54;6.60;99.90
61253;DHT22;47127;47.516;8.596;2023-02-01T14:37:00;6.50;99.90
61253;DHT22;47127;47.516;8.596;2023-02-01T14:44:40;6.60;99.90
61253;DHT22;47127;47.516;8.596;2023-02-01T14:47:32;6.50;99.90
61253;DHT22;47127;47.516;8.596;2023-02-01T14:53:32;6.50;99.90
61253;DHT22;47127;47.516;8.596;2023-02-01T14:55:54;6.60;99.90
61253;DHT22;47127;47.516;8.596;2023-02-01T14:58:56;6.50;99.90
61253;DHT22;47127;47.516;8.596;2023-02-01T15:01:34;6.50;99.90
61253;DHT22;47127;47.516;8.596;2023-02-01T15:06:39;6.40;99.90
61253;DHT22;47127;47.516;8.596;2023-02-01T15:09:15;6.30;99.90
61253;DHT22;47127;47.516;8.596;2023-02-01T15:12:02;6.30;99.90
61253;DHT22;47127;47.516;8.596;2023-02-01T15:14:33;6.30;99.90
61253;DHT22;47127;47.516;8.596;2023-02-01T15:16:59;6.20;99.90
61253;DHT22;47127;47.516;8.596;2023-02-01T15:19:27;6.20;99.90
61253;DHT22;47127;47.516;8.596;2023-02-01T15:21:55;6.20;99.90
61253;DHT22;47127;47.516;8.596;2023-02-01T15:24:26;6.20;99.90
61253;DHT22;47127;47.516;8.596;2023-02-01T15:27:02;6.10;99.90
61253;DHT22;47127;47.516;8.596;2023-02-01T15:29:34;6.10;99.90
61253;DHT22;47127;47.516;8.596;2023-02-01T15:32:02;6.10;99.90
61253;DHT22;47127;47.516;8.596;2023-02-01T15:34:50;6.10;99.90
61253;DHT22;47127;47.516;8.596;2023-02-01T15:37:16;6.00;99.90
61253;DHT22;47127;47.516;8.596;2023-02-01T15:45:18;6.00;99.90
61253;DHT22;47127;47.516;8.596;2023-02-01T15:47:50;6.10;99.90
61253;DHT22;47127;47.516;8.596;2023-02-01T15:50:17;6.30;99.90
61253;DHT22;47127;47.516;8.596;2023-02-01T15:52:47;6.20;99.90
61253;DHT22;47127;47.516;8.596;2023-02-01T15:57:45;6.10;99.90
61253;DHT22;47127;47.516;8.596;2023-02-01T16:00:25;6.10;99.90
61253;DHT22;47127;47.516;8.596;2023-02-01T16:02:58;6.10;99.90
61253;DHT22;47127;47.516;8.596;2023-02-01T16:05:42;6.10;99.90
61253;DHT22;47127;47.516;8.596;2023-02-01T16:08:12;6.20;99.90
61253;DHT22;47127;47.516;8.596;2023-02-01T16:10:40;6.20;99.90
61253;DHT22;47127;47.516;8.596;2023-02-01T16:13:06;6.20;99.90
61253;DHT22;47127;47.516;8.596;2023-02-01T16:15:32;6.10;99.90
61253;DHT22;47127;47.516;8.596;2023-02-01T16:17:58;6.10;99.90
61253;DHT22;47127;47.516;8.596;2023-02-01T16:20:23;6.10;99.90
61253;DHT22;47127;47.516;8.596;2023-02-01T16:22:49;6.00;99.90
61253;DHT22;47127;47.516;8.596;2023-02-01T16:25:15;6.00;99.90
61253;DHT22;47127;47.516;8.596;2023-02-01T16:27:40;6.00;99.90
61253;DHT22;47127;47.516;8.596;2023-02-01T16:30:06;5.90;99.90
61253;DHT22;47127;47.516;8.596;2023-02-01T16:32:35;5.90;99.90
61253;DHT22;47127;47.516;8.596;2023-02-01T16:35:13;5.90;99.90
61253;DHT22;47127;47.516;8.596;2023-02-01T16:37:44;5.90;99.90
61253;DHT22;47127;47.516;8.596;2023-02-01T16:40:14;6.00;99.90
61253;DHT22;47127;47.516;8.596;2023-02-01T16:42:39;5.90;99.90
61253;DHT22;47127;47.516;8.596;2023-02-01T16:45:06;5.90;99.90
61253;DHT22;47127;47.516;8.596;2023-02-01T16:47:32;6.00;99.90
61253;DHT22;47127;47.516;8.596;2023-02-01T16:49:59;6.10;99.90
61253;DHT22;47127;47.516;8.596;2023-02-01T16:52:25;6.00;99.90
61253;DHT22;47127;47.516;8.596;2023-02-01T16:54:51;6.00;99.90
61253;DHT22;47127;47.516;8.596;2023-02-01T16:57:19;6.00;99.90
61253;DHT22;47127;47.516;8.596;2023-02-01T16:59:48;6.00;99.90
61253;DHT22;47127;47.516;8.596;2023-02-01T17:02:17;5.90;99.90
61253;DHT22;47127;47.516;8.596;2023-02-01T17:04:44;5.90;99.90
61253;DHT22;47127;47.516;8.596;2023-02-01T17:07:17;6.00;99.90
61253;DHT22;47127;47.516;8.596;2023-02-01T17:09:44;6.00;99.90
61253;DHT22;47127;47.516;8.596;2023-02-01T17:12:28;6.00;99.90
61253;DHT22;47127;47.516;8.596;2023-02-01T17:14:55;5.90;99.90
61253;DHT22;47127;47.516;8.596;2023-02-01T17:17:22;5.90;99.90
61253;DHT22;47127;47.516;8.596;2023-02-01T17:19:51;6.10;99.90
61253;DHT22;47127;47.516;8.596;2023-02-01T17:22:19;6.00;99.90
61253;DHT22;47127;47.516;8.596;2023-02-01T17:24:45;6.00;99.90
61253;DHT22;47127;47.516;8.596;2023-02-01T17:27:11;6.00;99.90
61253;DHT22;47127;47.516;8.596;2023-02-01T17:29:36;6.00;99.90
61253;DHT22;47127;47.516;8.596;2023-02-01T17:32:03;6.10;99.90
61253;DHT22;47127;47.516;8.596;2023-02-01T17:34:28;6.10;99.90
61253;DHT22;47127;47.516;8.596;2023-02-01T17:36:54;6.10;99.90
61253;DHT22;47127;47.516;8.596;2023-02-01T17:39:20;6.10;99.90
61253;DHT22;47127;47.516;8.596;2023-02-01T17:42:05;6.10;99.90
61253;DHT22;47127;47.516;8.596;2023-02-01T17:44:33;6.00;99.90
61253;DHT22;47127;47.516;8.596;2023-02-01T17:46:59;6.00;99.90
61253;DHT22;47127;47.516;8.596;2023-02-01T17:49:25;6.10;99.90
61253;DHT22;47127;47.516;8.596;2023-02-01T17:51:53;6.00;99.90